sensor_id;sensor_type;location;lat;lon;timestamp;P1;durP1;ratioP1;P2;durP2;ratioP2
42770;SDS011;28426;42.872;25.314;2023-05-13T00:01:44;4.55;;;2.28;;
42770;SDS011;28426;42.872;25.314;2023-05-13T00:04:16;5.75;;;2.38;;
42770;SDS011;28426;42.872;25.314;2023-05-13T00:06:47;6.60;;;2.75;;
42770;SDS011;28426;42.872;25.314;2023-05-13T00:09:17;5.78;;;2.65;;
42770;SDS011;28426;42.872;25.314;2023-05-13T00:11:51;6.47;;;2.90;;
42770;SDS011;28426;42.872;25.314;2023-05-13T00:14:22;5.53;;;2.88;;
42770;SDS011;28426;42.872;25.314;2023-05-13T00:16:53;4.90;;;2.80;;
42770;SDS011;28426;42.872;25.314;2023-05-13T00:19:24;7.50;;;3.25;;
42770;SDS011;28426;42.872;25.314;2023-05-13T00:21:55;6.82;;;3.45;;
42770;SDS011;28426;42.872;25.314;2023-05-13T00:24:26;6.97;;;3.45;;
42770;SDS011;28426;42.872;25.314;2023-05-13T00:26:59;6.97;;;3.20;;
42770;SDS011;28426;42.872;25.314;2023-05-13T00:29:30;7.45;;;2.80;;
42770;SDS011;28426;42.872;25.314;2023-05-13T00:32:01;5.43;;;3.60;;
42770;SDS011;28426;42.872;25.314;2023-05-13T00:34:32;6.30;;;3.28;;
42770;SDS011;28426;42.872;25.314;2023-05-13T00:37:06;6.20;;;3.13;;
42770;SDS011;28426;42.872;25.314;2023-05-13T00:39:38;5.60;;;3.50;;
42770;SDS011;28426;42.872;25.314;2023-05-13T00:42:12;7.03;;;3.60;;
42770;SDS011;28426;42.872;25.314;2023-05-13T00:44:42;7.05;;;3.15;;
42770;SDS011;28426;42.872;25.314;2023-05-13T00:47:13;9.30;;;2.67;;
42770;SDS011;28426;42.872;25.314;2023-05-13T00:49:45;5.00;;;2.60;;
42770;SDS011;28426;42.872;25.314;2023-05-13T00:52:16;6.13;;;2.88;;
42770;SDS011;28426;42.872;25.314;2023-05-13T00:54:47;4.72;;;2.63;;
42770;SDS011;28426;42.872;25.314;2023-05-13T00:57:21;6.30;;;2.90;;
42770;SDS011;28426;42.872;25.314;2023-05-13T00:59:51;7.05;;;2.70;;
42770;SDS011;28426;42.872;25.314;2023-05-13T01:02:24;6.07;;;2.45;;
42770;SDS011;28426;42.872;25.314;2023-05-13T01:05:05;4.32;;;2.30;;
42770;SDS011;28426;42.872;25.314;2023-05-13T01:07:43;5.32;;;2.60;;
42770;SDS011;28426;42.872;25.314;2023-05-13T01:10:22;5.40;;;2.60;;
42770;SDS011;28426;42.872;25.314;2023-05-13T01:13:10;5.43;;;2.28;;
42770;SDS011;28426;42.872;25.314;2023-05-13T01:15:44;7.03;;;2.45;;
42770;SDS011;28426;42.872;25.314;2023-05-13T01:18:19;4.65;;;2.15;;
42770;SDS011;28426;42.872;25.314;2023-05-13T01:20:54;6.25;;;2.17;;
42770;SDS011;28426;42.872;25.314;2023-05-13T01:23:28;7.75;;;2.45;;
42770;SDS011;28426;42.872;25.314;2023-05-13T01:25:59;4.22;;;2.13;;
42770;SDS011;28426;42.872;25.314;2023-05-13T01:28:32;6.07;;;2.15;;
42770;SDS011;28426;42.872;25.314;2023-05-13T01:31:04;4.35;;;2.17;;
42770;SDS011;28426;42.872;25.314;2023-05-13T01:33:37;6.00;;;1.90;;
42770;SDS011;28426;42.872;25.314;2023-05-13T01:36:09;4.05;;;2.10;;
42770;SDS011;28426;42.872;25.314;2023-05-13T01:38:43;4.20;;;2.15;;
42770;SDS011;28426;42.872;25.314;2023-05-13T01:41:15;4.22;;;2.10;;
42770;SDS011;28426;42.872;25.314;2023-05-13T01:43:46;3.72;;;2.00;;
42770;SDS011;28426;42.872;25.314;2023-05-13T01:46:17;3.60;;;2.03;;
42770;SDS011;28426;42.872;25.314;2023-05-13T01:48:48;6.47;;;2.75;;
42770;SDS011;28426;42.872;25.314;2023-05-13T01:51:18;4.55;;;2.22;;
42770;SDS011;28426;42.872;25.314;2023-05-13T01:53:52;6.47;;;2.22;;
42770;SDS011;28426;42.872;25.314;2023-05-13T01:56:24;6.68;;;2.47;;
42770;SDS011;28426;42.872;25.314;2023-05-13T01:58:56;6.00;;;2.60;;
42770;SDS011;28426;42.872;25.314;2023-05-13T02:01:27;6.97;;;2.30;;
42770;SDS011;28426;42.872;25.314;2023-05-13T02:03:58;5.43;;;2.13;;
42770;SDS011;28426;42.872;25.314;2023-05-13T02:06:29;5.13;;;2.28;;
42770;SDS011;28426;42.872;25.314;2023-05-13T02:09:03;4.80;;;2.13;;
42770;SDS011;28426;42.872;25.314;2023-05-13T02:11:37;8.00;;;2.45;;
42770;SDS011;28426;42.872;25.314;2023-05-13T02:14:08;5.78;;;2.60;;
42770;SDS011;28426;42.872;25.314;2023-05-13T02:16:39;4.97;;;2.28;;
42770;SDS011;28426;42.872;25.314;2023-05-13T02:19:09;5.15;;;2.33;;
42770;SDS011;28426;42.872;25.314;2023-05-13T02:21:41;6.25;;;2.33;;
42770;SDS011;28426;42.872;25.314;2023-05-13T02:24:15;5.70;;;2.35;;
42770;SDS011;28426;42.872;25.314;2023-05-13T02:26:46;4.90;;;2.20;;
42770;SDS011;28426;42.872;25.314;2023-05-13T02:29:16;4.05;;;2.22;;
42770;SDS011;28426;42.872;25.314;2023-05-13T02:31:47;5.18;;;2.33;;
42770;SDS011;28426;42.872;25.314;2023-05-13T02:34:18;4.40;;;2.20;;
42770;SDS011;28426;42.872;25.314;2023-05-13T02:36:49;4.55;;;2.38;;
42770;SDS011;28426;42.872;25.314;2023-05-13T02:39:23;4.70;;;2.20;;
42770;SDS011;28426;42.872;25.314;2023-05-13T02:41:56;4.95;;;2.40;;
42770;SDS011;28426;42.872;25.314;2023-05-13T02:44:31;4.40;;;2.30;;
42770;SDS011;28426;42.872;25.314;2023-05-13T02:47:01;4.93;;;2.28;;
42770;SDS011;28426;42.872;25.314;2023-05-13T02:49:32;4.75;;;2.63;;
42770;SDS011;28426;42.872;25.314;2023-05-13T02:52:05;6.10;;;2.50;;
42770;SDS011;28426;42.872;25.314;2023-05-13T02:54:39;7.22;;;2.28;;
42770;SDS011;28426;42.872;25.314;2023-05-13T02:57:10;4.53;;;2.10;;
42770;SDS011;28426;42.872;25.314;2023-05-13T02:59:42;9.40;;;2.80;;
42770;SDS011;28426;42.872;25.314;2023-05-13T03:02:12;5.72;;;2.60;;
42770;SDS011;28426;42.872;25.314;2023-05-13T03:04:43;5.40;;;2.53;;
42770;SDS011;28426;42.872;25.314;2023-05-13T03:07:14;5.57;;;2.55;;
42770;SDS011;28426;42.872;25.314;2023-05-13T03:09:48;7.25;;;2.60;;
42770;SDS011;28426;42.872;25.314;2023-05-13T03:12:18;5.70;;;2.60;;
42770;SDS011;28426;42.872;25.314;2023-05-13T03:14:49;7.65;;;2.65;;
42770;SDS011;28426;42.872;25.314;2023-05-13T03:17:20;6.07;;;2.42;;
42770;SDS011;28426;42.872;25.314;2023-05-13T03:19:51;4.85;;;2.47;;
42770;SDS011;28426;42.872;25.314;2023-05-13T03:22:22;5.72;;;2.35;;
42770;SDS011;28426;42.872;25.314;2023-05-13T03:24:56;5.18;;;2.72;;
42770;SDS011;28426;42.872;25.314;2023-05-13T03:27:34;5.38;;;2.92;;
42770;SDS011;28426;42.872;25.314;2023-05-13T03:30:06;7.97;;;3.30;;
42770;SDS011;28426;42.872;25.314;2023-05-13T03:32:54;9.15;;;3.45;;
42770;SDS011;28426;42.872;25.314;2023-05-13T03:35:25;7.07;;;2.88;;
42770;SDS011;28426;42.872;25.314;2023-05-13T03:37:56;4.97;;;2.72;;
42770;SDS011;28426;42.872;25.314;2023-05-13T03:40:31;9.40;;;2.60;;
42770;SDS011;28426;42.872;25.314;2023-05-13T03:43:02;5.25;;;3.13;;
42770;SDS011;28426;42.872;25.314;2023-05-13T03:45:35;5.22;;;2.40;;
42770;SDS011;28426;42.872;25.314;2023-05-13T03:48:10;4.70;;;2.10;;
42770;SDS011;28426;42.872;25.314;2023-05-13T03:50:40;5.30;;;2.55;;
42770;SDS011;28426;42.872;25.314;2023-05-13T03:53:16;4.82;;;2.47;;
42770;SDS011;28426;42.872;25.314;2023-05-13T03:55:50;6.38;;;2.40;;
42770;SDS011;28426;42.872;25.314;2023-05-13T03:58:21;5.93;;;2.00;;
42770;SDS011;28426;42.872;25.314;2023-05-13T04:00:52;5.57;;;2.20;;
42770;SDS011;28426;42.872;25.314;2023-05-13T04:03:23;6.30;;;2.53;;
42770;SDS011;28426;42.872;25.314;2023-05-13T04:05:53;4.57;;;2.17;;
42770;SDS011;28426;42.872;25.314;2023-05-13T04:08:24;5.63;;;1.83;;
42770;SDS011;28426;42.872;25.314;2023-05-13T04:10:58;3.85;;;1.85;;
42770;SDS011;28426;42.872;25.314;2023-05-13T04:13:28;4.50;;;2.20;;
42770;SDS011;28426;42.872;25.314;2023-05-13T04:15:59;4.80;;;2.15;;
42770;SDS011;28426;42.872;25.314;2023-05-13T04:18:32;5.70;;;2.30;;
42770;SDS011;28426;42.872;25.314;2023-05-13T04:21:04;5.47;;;2.08;;
42770;SDS011;28426;42.872;25.314;2023-05-13T04:23:36;7.03;;;2.05;;
42770;SDS011;28426;42.872;25.314;2023-05-13T04:26:09;6.32;;;2.33;;
42770;SDS011;28426;42.872;25.314;2023-05-13T04:28:40;5.00;;;2.22;;
42770;SDS011;28426;42.872;25.314;2023-05-13T04:31:11;5.22;;;2.10;;
42770;SDS011;28426;42.872;25.314;2023-05-13T04:33:42;6.35;;;2.08;;
42770;SDS011;28426;42.872;25.314;2023-05-13T04:36:12;6.30;;;2.58;;
42770;SDS011;28426;42.872;25.314;2023-05-13T04:38:43;10.20;;;2.08;;
42770;SDS011;28426;42.872;25.314;2023-05-13T04:41:18;6.78;;;2.35;;
42770;SDS011;28426;42.872;25.314;2023-05-13T04:43:49;6.93;;;3.13;;
42770;SDS011;28426;42.872;25.314;2023-05-13T04:46:20;4.45;;;2.22;;
42770;SDS011;28426;42.872;25.314;2023-05-13T04:48:52;3.83;;;2.15;;
42770;SDS011;28426;42.872;25.314;2023-05-13T04:51:24;5.78;;;2.45;;
42770;SDS011;28426;42.872;25.314;2023-05-13T04:53:55;4.85;;;2.40;;
42770;SDS011;28426;42.872;25.314;2023-05-13T04:56:29;8.73;;;2.60;;
42770;SDS011;28426;42.872;25.314;2023-05-13T04:59:00;5.65;;;2.67;;
42770;SDS011;28426;42.872;25.314;2023-05-13T05:01:31;4.63;;;2.00;;
42770;SDS011;28426;42.872;25.314;2023-05-13T05:04:02;3.65;;;1.90;;
42770;SDS011;28426;42.872;25.314;2023-05-13T05:06:35;5.60;;;2.28;;
42770;SDS011;28426;42.872;25.314;2023-05-13T05:09:06;6.18;;;2.28;;
42770;SDS011;28426;42.872;25.314;2023-05-13T05:11:39;10.73;;;2.75;;
42770;SDS011;28426;42.872;25.314;2023-05-13T05:14:10;5.38;;;2.30;;
42770;SDS011;28426;42.872;25.314;2023-05-13T05:16:41;7.40;;;2.92;;
42770;SDS011;28426;42.872;25.314;2023-05-13T05:19:14;8.55;;;2.95;;
42770;SDS011;28426;42.872;25.314;2023-05-13T05:21:52;5.95;;;3.22;;
42770;SDS011;28426;42.872;25.314;2023-05-13T05:24:23;8.75;;;3.15;;
42770;SDS011;28426;42.872;25.314;2023-05-13T05:26:57;8.35;;;3.67;;
42770;SDS011;28426;42.872;25.314;2023-05-13T05:29:29;5.57;;;3.20;;
42770;SDS011;28426;42.872;25.314;2023-05-13T05:31:59;6.85;;;2.75;;
42770;SDS011;28426;42.872;25.314;2023-05-13T05:34:31;5.65;;;2.65;;
42770;SDS011;28426;42.872;25.314;2023-05-13T05:37:02;16.85;;;3.50;;
42770;SDS011;28426;42.872;25.314;2023-05-13T05:39:35;5.97;;;2.20;;
42770;SDS011;28426;42.872;25.314;2023-05-13T05:42:10;5.82;;;2.35;;
42770;SDS011;28426;42.872;25.314;2023-05-13T05:44:41;8.27;;;2.90;;
42770;SDS011;28426;42.872;25.314;2023-05-13T05:47:12;9.20;;;2.78;;
42770;SDS011;28426;42.872;25.314;2023-05-13T05:49:43;5.22;;;2.20;;
42770;SDS011;28426;42.872;25.314;2023-05-13T05:52:15;12.98;;;2.72;;
42770;SDS011;28426;42.872;25.314;2023-05-13T05:54:47;5.68;;;2.22;;
42770;SDS011;28426;42.872;25.314;2023-05-13T05:57:22;5.88;;;1.88;;
42770;SDS011;28426;42.872;25.314;2023-05-13T05:59:53;8.95;;;2.65;;
42770;SDS011;28426;42.872;25.314;2023-05-13T06:02:24;8.48;;;2.58;;
42770;SDS011;28426;42.872;25.314;2023-05-13T06:04:55;5.93;;;1.80;;
42770;SDS011;28426;42.872;25.314;2023-05-13T06:07:27;3.80;;;2.00;;
42770;SDS011;28426;42.872;25.314;2023-05-13T06:09:58;8.77;;;2.30;;
42770;SDS011;28426;42.872;25.314;2023-05-13T06:12:33;5.03;;;2.33;;
42770;SDS011;28426;42.872;25.314;2023-05-13T06:15:05;6.78;;;2.67;;
42770;SDS011;28426;42.872;25.314;2023-05-13T06:17:37;6.57;;;1.90;;
42770;SDS011;28426;42.872;25.314;2023-05-13T06:20:08;6.05;;;2.28;;
42770;SDS011;28426;42.872;25.314;2023-05-13T06:22:40;4.97;;;2.10;;
42770;SDS011;28426;42.872;25.314;2023-05-13T06:25:11;6.43;;;2.40;;
42770;SDS011;28426;42.872;25.314;2023-05-13T06:27:45;11.15;;;2.30;;
42770;SDS011;28426;42.872;25.314;2023-05-13T06:30:20;5.90;;;1.88;;
42770;SDS011;28426;42.872;25.314;2023-05-13T06:32:51;5.32;;;2.50;;
42770;SDS011;28426;42.872;25.314;2023-05-13T06:35:29;4.32;;;2.22;;
42770;SDS011;28426;42.872;25.314;2023-05-13T06:38:03;6.80;;;2.10;;
42770;SDS011;28426;42.872;25.314;2023-05-13T06:40:35;4.70;;;1.85;;
42770;SDS011;28426;42.872;25.314;2023-05-13T06:43:09;3.80;;;1.60;;
42770;SDS011;28426;42.872;25.314;2023-05-13T06:45:45;5.60;;;1.90;;
42770;SDS011;28426;42.872;25.314;2023-05-13T06:48:15;8.55;;;2.40;;
42770;SDS011;28426;42.872;25.314;2023-05-13T06:50:46;11.27;;;2.47;;
42770;SDS011;28426;42.872;25.314;2023-05-13T06:53:17;6.68;;;2.08;;
42770;SDS011;28426;42.872;25.314;2023-05-13T06:55:48;7.28;;;2.60;;
42770;SDS011;28426;42.872;25.314;2023-05-13T06:58:21;9.35;;;2.60;;
42770;SDS011;28426;42.872;25.314;2023-05-13T07:00:52;9.23;;;2.72;;
42770;SDS011;28426;42.872;25.314;2023-05-13T07:03:23;9.35;;;2.00;;
42770;SDS011;28426;42.872;25.314;2023-05-13T07:05:54;5.45;;;2.20;;
42770;SDS011;28426;42.872;25.314;2023-05-13T07:08:25;4.60;;;1.90;;
42770;SDS011;28426;42.872;25.314;2023-05-13T07:10:56;8.00;;;1.92;;
42770;SDS011;28426;42.872;25.314;2023-05-13T07:13:29;4.65;;;1.70;;
42770;SDS011;28426;42.872;25.314;2023-05-13T07:16:01;4.77;;;1.70;;
42770;SDS011;28426;42.872;25.314;2023-05-13T07:18:32;5.68;;;2.10;;
42770;SDS011;28426;42.872;25.314;2023-05-13T07:21:03;3.90;;;2.00;;
42770;SDS011;28426;42.872;25.314;2023-05-13T07:23:34;7.60;;;1.80;;
42770;SDS011;28426;42.872;25.314;2023-05-13T07:26:05;6.95;;;1.80;;
42770;SDS011;28426;42.872;25.314;2023-05-13T07:28:38;6.53;;;1.90;;
42770;SDS011;28426;42.872;25.314;2023-05-13T07:31:09;5.35;;;1.70;;
42770;SDS011;28426;42.872;25.314;2023-05-13T07:33:40;5.10;;;2.20;;
42770;SDS011;28426;42.872;25.314;2023-05-13T07:36:11;7.97;;;2.10;;
42770;SDS011;28426;42.872;25.314;2023-05-13T07:38:42;4.68;;;1.90;;
42770;SDS011;28426;42.872;25.314;2023-05-13T07:41:13;6.57;;;1.60;;
42770;SDS011;28426;42.872;25.314;2023-05-13T07:43:46;4.28;;;1.55;;
42770;SDS011;28426;42.872;25.314;2023-05-13T07:46:17;6.15;;;2.20;;
42770;SDS011;28426;42.872;25.314;2023-05-13T07:48:48;5.22;;;1.92;;
42770;SDS011;28426;42.872;25.314;2023-05-13T07:51:18;4.80;;;2.10;;
42770;SDS011;28426;42.872;25.314;2023-05-13T07:53:49;6.68;;;2.55;;
42770;SDS011;28426;42.872;25.314;2023-05-13T07:56:21;5.28;;;2.08;;
42770;SDS011;28426;42.872;25.314;2023-05-13T07:58:55;7.95;;;2.53;;
42770;SDS011;28426;42.872;25.314;2023-05-13T08:01:26;6.22;;;1.52;;
42770;SDS011;28426;42.872;25.314;2023-05-13T08:03:57;3.83;;;1.70;;
42770;SDS011;28426;42.872;25.314;2023-05-13T08:06:28;6.18;;;1.70;;
42770;SDS011;28426;42.872;25.314;2023-05-13T08:08:59;8.60;;;2.33;;
42770;SDS011;28426;42.872;25.314;2023-05-13T08:11:30;3.65;;;1.60;;
42770;SDS011;28426;42.872;25.314;2023-05-13T08:14:04;5.00;;;1.70;;
42770;SDS011;28426;42.872;25.314;2023-05-13T08:16:34;4.18;;;1.83;;
42770;SDS011;28426;42.872;25.314;2023-05-13T08:19:06;6.55;;;2.40;;
42770;SDS011;28426;42.872;25.314;2023-05-13T08:21:36;6.00;;;1.50;;
42770;SDS011;28426;42.872;25.314;2023-05-13T08:24:07;5.85;;;1.58;;
42770;SDS011;28426;42.872;25.314;2023-05-13T08:26:38;4.90;;;1.58;;
42770;SDS011;28426;42.872;25.314;2023-05-13T08:29:11;5.80;;;1.60;;
42770;SDS011;28426;42.872;25.314;2023-05-13T08:31:42;5.70;;;1.80;;
42770;SDS011;28426;42.872;25.314;2023-05-13T08:34:13;4.18;;;1.80;;
42770;SDS011;28426;42.872;25.314;2023-05-13T08:36:44;5.90;;;2.00;;
42770;SDS011;28426;42.872;25.314;2023-05-13T08:39:15;3.75;;;1.58;;
42770;SDS011;28426;42.872;25.314;2023-05-13T08:41:46;9.32;;;2.33;;
42770;SDS011;28426;42.872;25.314;2023-05-13T08:44:23;4.65;;;1.90;;
42770;SDS011;28426;42.872;25.314;2023-05-13T08:46:59;10.73;;;1.88;;
42770;SDS011;28426;42.872;25.314;2023-05-13T08:49:37;7.20;;;1.70;;
42770;SDS011;28426;42.872;25.314;2023-05-13T08:52:08;5.82;;;2.63;;
42770;SDS011;28426;42.872;25.314;2023-05-13T08:54:39;6.53;;;1.98;;
42770;SDS011;28426;42.872;25.314;2023-05-13T08:57:13;6.75;;;1.67;;
42770;SDS011;28426;42.872;25.314;2023-05-13T08:59:46;4.28;;;1.92;;
42770;SDS011;28426;42.872;25.314;2023-05-13T09:02:17;3.00;;;1.48;;
42770;SDS011;28426;42.872;25.314;2023-05-13T09:04:48;3.85;;;1.23;;
42770;SDS011;28426;42.872;25.314;2023-05-13T09:07:23;6.75;;;1.60;;
42770;SDS011;28426;42.872;25.314;2023-05-13T09:09:54;4.47;;;1.83;;
42770;SDS011;28426;42.872;25.314;2023-05-13T09:15:21;6.20;;;2.00;;
42770;SDS011;28426;42.872;25.314;2023-05-13T09:20:24;4.25;;;2.08;;
42770;SDS011;28426;42.872;25.314;2023-05-13T09:22:56;3.40;;;1.80;;
42770;SDS011;28426;42.872;25.314;2023-05-13T09:25:29;3.90;;;1.70;;
42770;SDS011;28426;42.872;25.314;2023-05-13T09:28:02;6.40;;;1.70;;
42770;SDS011;28426;42.872;25.314;2023-05-13T09:30:37;4.03;;;1.60;;
42770;SDS011;28426;42.872;25.314;2023-05-13T09:33:13;4.45;;;1.50;;
42770;SDS011;28426;42.872;25.314;2023-05-13T09:35:48;6.68;;;1.60;;
42770;SDS011;28426;42.872;25.314;2023-05-13T09:38:20;3.20;;;1.40;;
42770;SDS011;28426;42.872;25.314;2023-05-13T09:40:55;4.38;;;1.38;;
42770;SDS011;28426;42.872;25.314;2023-05-13T09:43:29;5.22;;;1.67;;
42770;SDS011;28426;42.872;25.314;2023-05-13T09:46:04;5.77;;;2.00;;
42770;SDS011;28426;42.872;25.314;2023-05-13T09:48:34;5.10;;;1.58;;
42770;SDS011;28426;42.872;25.314;2023-05-13T09:51:05;4.72;;;1.50;;
42770;SDS011;28426;42.872;25.314;2023-05-13T09:53:36;3.85;;;1.40;;
42770;SDS011;28426;42.872;25.314;2023-05-13T09:56:07;4.15;;;1.52;;
42770;SDS011;28426;42.872;25.314;2023-05-13T09:58:39;3.40;;;1.40;;
42770;SDS011;28426;42.872;25.314;2023-05-13T10:01:13;5.78;;;1.60;;
42770;SDS011;28426;42.872;25.314;2023-05-13T10:03:44;2.97;;;1.50;;
42770;SDS011;28426;42.872;25.314;2023-05-13T10:06:15;4.43;;;1.30;;
42770;SDS011;28426;42.872;25.314;2023-05-13T10:08:48;4.55;;;1.30;;
42770;SDS011;28426;42.872;25.314;2023-05-13T10:11:21;3.17;;;1.45;;
42770;SDS011;28426;42.872;25.314;2023-05-13T10:13:54;4.95;;;1.80;;
42770;SDS011;28426;42.872;25.314;2023-05-13T10:16:32;3.15;;;1.40;;
42770;SDS011;28426;42.872;25.314;2023-05-13T10:19:03;5.50;;;1.52;;
42770;SDS011;28426;42.872;25.314;2023-05-13T10:21:34;3.67;;;1.40;;
42770;SDS011;28426;42.872;25.314;2023-05-13T10:24:06;4.30;;;1.60;;
42770;SDS011;28426;42.872;25.314;2023-05-13T10:26:40;4.27;;;1.47;;
42770;SDS011;28426;42.872;25.314;2023-05-13T10:29:11;3.22;;;1.35;;
42770;SDS011;28426;42.872;25.314;2023-05-13T10:31:46;5.32;;;1.48;;
42770;SDS011;28426;42.872;25.314;2023-05-13T10:34:18;4.40;;;1.40;;
42770;SDS011;28426;42.872;25.314;2023-05-13T10:36:55;7.45;;;1.80;;
42770;SDS011;28426;42.872;25.314;2023-05-13T10:42:42;6.35;;;1.60;;
42770;SDS011;28426;42.872;25.314;2023-05-13T10:45:17;3.85;;;1.40;;
42770;SDS011;28426;42.872;25.314;2023-05-13T10:47:51;2.83;;;1.50;;
42770;SDS011;28426;42.872;25.314;2023-05-13T10:50:24;4.82;;;1.58;;
42770;SDS011;28426;42.872;25.314;2023-05-13T10:52:57;4.07;;;1.70;;
42770;SDS011;28426;42.872;25.314;2023-05-13T10:55:29;5.97;;;1.92;;
42770;SDS011;28426;42.872;25.314;2023-05-13T10:58:03;4.35;;;1.80;;
42770;SDS011;28426;42.872;25.314;2023-05-13T11:00:37;6.78;;;1.95;;
42770;SDS011;28426;42.872;25.314;2023-05-13T11:03:17;6.53;;;1.80;;
42770;SDS011;28426;42.872;25.314;2023-05-13T11:05:58;5.88;;;1.50;;
42770;SDS011;28426;42.872;25.314;2023-05-13T11:08:36;4.78;;;1.55;;
42770;SDS011;28426;42.872;25.314;2023-05-13T11:11:19;4.68;;;1.52;;
42770;SDS011;28426;42.872;25.314;2023-05-13T11:13:53;7.20;;;3.00;;
42770;SDS011;28426;42.872;25.314;2023-05-13T11:16:34;6.43;;;2.17;;
42770;SDS011;28426;42.872;25.314;2023-05-13T11:19:17;4.20;;;1.60;;
42770;SDS011;28426;42.872;25.314;2023-05-13T11:21:51;4.15;;;1.90;;
42770;SDS011;28426;42.872;25.314;2023-05-13T11:24:22;6.30;;;1.83;;
42770;SDS011;28426;42.872;25.314;2023-05-13T11:26:54;3.97;;;1.80;;
42770;SDS011;28426;42.872;25.314;2023-05-13T11:29:26;4.32;;;1.77;;
42770;SDS011;28426;42.872;25.314;2023-05-13T11:31:58;3.97;;;1.45;;
42770;SDS011;28426;42.872;25.314;2023-05-13T11:34:32;5.30;;;1.75;;
42770;SDS011;28426;42.872;25.314;2023-05-13T11:37:07;4.90;;;1.77;;
42770;SDS011;28426;42.872;25.314;2023-05-13T11:39:39;5.95;;;1.92;;
42770;SDS011;28426;42.872;25.314;2023-05-13T11:42:10;3.85;;;1.50;;
42770;SDS011;28426;42.872;25.314;2023-05-13T11:44:44;3.72;;;1.55;;
42770;SDS011;28426;42.872;25.314;2023-05-13T11:47:18;3.85;;;1.52;;
42770;SDS011;28426;42.872;25.314;2023-05-13T11:49:58;4.90;;;1.60;;
42770;SDS011;28426;42.872;25.314;2023-05-13T11:52:30;4.67;;;1.43;;
42770;SDS011;28426;42.872;25.314;2023-05-13T11:55:01;5.53;;;1.80;;
42770;SDS011;28426;42.872;25.314;2023-05-13T11:57:33;3.78;;;2.10;;
42770;SDS011;28426;42.872;25.314;2023-05-13T12:00:04;3.55;;;1.60;;
42770;SDS011;28426;42.872;25.314;2023-05-13T12:02:39;4.40;;;1.60;;
42770;SDS011;28426;42.872;25.314;2023-05-13T12:05:14;3.60;;;1.52;;
42770;SDS011;28426;42.872;25.314;2023-05-13T12:07:45;7.40;;;1.98;;
42770;SDS011;28426;42.872;25.314;2023-05-13T12:10:17;7.63;;;1.63;;
42770;SDS011;28426;42.872;25.314;2023-05-13T12:12:47;5.07;;;1.60;;
42770;SDS011;28426;42.872;25.314;2023-05-13T12:15:19;5.75;;;1.75;;
42770;SDS011;28426;42.872;25.314;2023-05-13T12:17:51;4.75;;;1.88;;
42770;SDS011;28426;42.872;25.314;2023-05-13T12:20:27;6.22;;;1.80;;
42770;SDS011;28426;42.872;25.314;2023-05-13T12:22:59;5.60;;;3.90;;
42770;SDS011;28426;42.872;25.314;2023-05-13T12:25:37;7.20;;;1.80;;
42770;SDS011;28426;42.872;25.314;2023-05-13T12:28:11;3.88;;;1.60;;
42770;SDS011;28426;42.872;25.314;2023-05-13T12:30:48;6.15;;;1.55;;
42770;SDS011;28426;42.872;25.314;2023-05-13T12:33:23;4.93;;;1.77;;
42770;SDS011;28426;42.872;25.314;2023-05-13T12:38:52;12.30;;;2.28;;
42770;SDS011;28426;42.872;25.314;2023-05-13T12:41:28;3.88;;;1.65;;
42770;SDS011;28426;42.872;25.314;2023-05-13T12:44:01;7.03;;;1.80;;
42770;SDS011;28426;42.872;25.314;2023-05-13T12:46:34;4.55;;;1.80;;
42770;SDS011;28426;42.872;25.314;2023-05-13T12:49:07;5.75;;;1.70;;
42770;SDS011;28426;42.872;25.314;2023-05-13T12:51:41;5.05;;;1.80;;
42770;SDS011;28426;42.872;25.314;2023-05-13T12:54:12;6.47;;;1.92;;
42770;SDS011;28426;42.872;25.314;2023-05-13T12:56:43;3.60;;;1.55;;
42770;SDS011;28426;42.872;25.314;2023-05-13T12:59:14;4.78;;;1.85;;
42770;SDS011;28426;42.872;25.314;2023-05-13T13:01:45;5.70;;;1.80;;
42770;SDS011;28426;42.872;25.314;2023-05-13T13:04:17;2.80;;;1.40;;
42770;SDS011;28426;42.872;25.314;2023-05-13T13:06:50;4.75;;;1.60;;
42770;SDS011;28426;42.872;25.314;2023-05-13T13:09:21;4.90;;;1.98;;
42770;SDS011;28426;42.872;25.314;2023-05-13T13:11:52;5.90;;;1.70;;
42770;SDS011;28426;42.872;25.314;2023-05-13T13:14:23;4.88;;;1.83;;
42770;SDS011;28426;42.872;25.314;2023-05-13T13:16:54;4.68;;;1.70;;
42770;SDS011;28426;42.872;25.314;2023-05-13T13:19:25;5.80;;;2.20;;
42770;SDS011;28426;42.872;25.314;2023-05-13T13:21:58;4.55;;;1.70;;
42770;SDS011;28426;42.872;25.314;2023-05-13T13:24:30;3.67;;;1.40;;
42770;SDS011;28426;42.872;25.314;2023-05-13T13:27:01;4.32;;;1.67;;
42770;SDS011;28426;42.872;25.314;2023-05-13T13:29:33;4.20;;;1.80;;
42770;SDS011;28426;42.872;25.314;2023-05-13T13:32:04;4.57;;;1.95;;
42770;SDS011;28426;42.872;25.314;2023-05-13T13:34:35;5.22;;;1.55;;
42770;SDS011;28426;42.872;25.314;2023-05-13T13:37:09;5.50;;;1.70;;
42770;SDS011;28426;42.872;25.314;2023-05-13T13:39:39;4.63;;;1.50;;
42770;SDS011;28426;42.872;25.314;2023-05-13T13:42:10;6.35;;;2.05;;
42770;SDS011;28426;42.872;25.314;2023-05-13T13:44:41;5.28;;;2.00;;
42770;SDS011;28426;42.872;25.314;2023-05-13T13:47:12;6.13;;;2.10;;
42770;SDS011;28426;42.872;25.314;2023-05-13T13:49:42;3.60;;;1.50;;
42770;SDS011;28426;42.872;25.314;2023-05-13T13:52:16;3.97;;;1.70;;
42770;SDS011;28426;42.872;25.314;2023-05-13T13:54:49;2.42;;;1.40;;
42770;SDS011;28426;42.872;25.314;2023-05-13T13:57:19;4.00;;;1.70;;
42770;SDS011;28426;42.872;25.314;2023-05-13T13:59:50;3.83;;;2.00;;
42770;SDS011;28426;42.872;25.314;2023-05-13T14:02:21;4.03;;;1.70;;
42770;SDS011;28426;42.872;25.314;2023-05-13T14:04:52;3.50;;;1.70;;
42770;SDS011;28426;42.872;25.314;2023-05-13T14:07:25;4.90;;;2.05;;
42770;SDS011;28426;42.872;25.314;2023-05-13T14:09:56;6.55;;;1.83;;
42770;SDS011;28426;42.872;25.314;2023-05-13T14:12:32;5.40;;;1.70;;
42770;SDS011;28426;42.872;25.314;2023-05-13T14:15:05;4.72;;;1.88;;
42770;SDS011;28426;42.872;25.314;2023-05-13T14:17:37;6.95;;;1.90;;
42770;SDS011;28426;42.872;25.314;2023-05-13T14:20:08;5.90;;;2.13;;
42770;SDS011;28426;42.872;25.314;2023-05-13T14:22:42;3.83;;;1.70;;
42770;SDS011;28426;42.872;25.314;2023-05-13T14:25:13;3.85;;;1.70;;
42770;SDS011;28426;42.872;25.314;2023-05-13T14:27:44;4.68;;;1.67;;
42770;SDS011;28426;42.872;25.314;2023-05-13T14:30:15;5.32;;;1.60;;
42770;SDS011;28426;42.872;25.314;2023-05-13T14:32:46;4.28;;;1.73;;
42770;SDS011;28426;42.872;25.314;2023-05-13T14:35:17;3.60;;;2.00;;
42770;SDS011;28426;42.872;25.314;2023-05-13T14:37:50;6.35;;;2.08;;
42770;SDS011;28426;42.872;25.314;2023-05-13T14:40:21;5.03;;;1.70;;
42770;SDS011;28426;42.872;25.314;2023-05-13T14:42:52;3.40;;;1.48;;
42770;SDS011;28426;42.872;25.314;2023-05-13T14:45:23;4.95;;;2.10;;
42770;SDS011;28426;42.872;25.314;2023-05-13T14:47:54;3.75;;;1.60;;
42770;SDS011;28426;42.872;25.314;2023-05-13T14:50:25;5.20;;;2.05;;
42770;SDS011;28426;42.872;25.314;2023-05-13T14:52:58;6.30;;;1.75;;
42770;SDS011;28426;42.872;25.314;2023-05-13T14:55:29;5.55;;;1.70;;
42770;SDS011;28426;42.872;25.314;2023-05-13T14:58:00;7.30;;;2.00;;
42770;SDS011;28426;42.872;25.314;2023-05-13T15:00:31;5.97;;;2.25;;
42770;SDS011;28426;42.872;25.314;2023-05-13T15:03:03;3.28;;;1.67;;
42770;SDS011;28426;42.872;25.314;2023-05-13T15:05:35;3.88;;;1.40;;
42770;SDS011;28426;42.872;25.314;2023-05-13T15:08:11;4.93;;;1.92;;
42770;SDS011;28426;42.872;25.314;2023-05-13T15:10:43;5.28;;;1.80;;
42770;SDS011;28426;42.872;25.314;2023-05-13T15:13:14;10.45;;;2.60;;
42770;SDS011;28426;42.872;25.314;2023-05-13T15:15:45;5.93;;;1.90;;